Time,TemperatureF,DewpointF,PressureIn,WindDirection,WindDirectionDegrees,WindSpeedMPH,WindSpeedGustMPH,Humidity,HourlyPrecipIn,Conditions,Clouds,dailyrainin,SoftwareType,DateUTC
2013-09-01 00:01:00,70.9,70.9,29.32,SW,234,0.0,0.0,100,0.00,,---,0.00,VWS V14.01,2013-09-01 04:01:00,
2013-09-01 00:02:00,70.9,70.9,29.32,SW,234,0.0,0.0,100,0.00,,---,0.00,VWS V14.01,2013-09-01 04:02:00,
2013-09-01 00:07:00,70.9,70.9,29.32,SW,234,0.0,0.0,100,0.00,,---,0.00,VWS V14.01,2013-09-01 04:07:00,
2013-09-01 00:12:00,71.1,71.1,29.32,SW,234,0.0,0.0,100,0.00,,---,0.00,VWS V14.01,2013-09-01 04:12:00,
2013-09-01 00:17:00,71.1,71.1,29.32,SW,229,4.5,4.5,100,0.00,,---,0.00,VWS V14.01,2013-09-01 04:17:00,
2013-09-01 00:22:00,71.1,71.1,29.32,SSE,156,0.0,0.0,100,0.00,,---,0.00,VWS V14.01,2013-09-01 04:22:00,
2013-09-01 00:27:00,71.1,71.1,29.32,SSW,194,0.0,0.0,100,0.00,,---,0.00,VWS V14.01,2013-09-01 04:27:00,
2013-09-01 00:32:00,71.1,71.1,29.32,South,190,0.0,0.0,100,0.00,,---,0.00,VWS V14.01,2013-09-01 04:32:00,
2013-09-01 00:37:00,71.2,71.2,29.32,SE,129,0.0,0.0,100,0.00,,---,0.00,VWS V14.01,2013-09-01 04:37:00,
2013-09-01 00:42:00,71.2,71.2,29.32,ESE,118,0.0,0.0,100,0.00,,---,0.00,VWS V14.01,2013-09-01 04:42:00,
2013-09-01 00:47:00,71.2,71.2,29.32,South,185,0.0,0.0,100,0.00,,---,0.00,VWS V14.01,2013-09-01 04:47:00,
2013-09-01 00:52:00,71.1,71.1,29.32,South,184,0.0,0.0,100,0.00,,---,0.00,VWS V14.01,2013-09-01 04:52:00,
2013-09-01 00:57:00,71.1,71.1,29.32,South,184,0.0,0.0,100,0.00,,---,0.00,VWS V14.01,2013-09-01 04:57:00,
2013-09-01 01:02:00,71.1,71.1,29.32,ESE,114,0.0,0.0,100,0.00,,---,0.00,VWS V14.01,2013-09-01 05:02:00,
2013-09-01 01:07:00,71.1,71.1,29.32,ESE,114,0.0,0.0,100,0.00,,---,0.00,VWS V14.01,2013-09-01 05:07:00,
2013-09-01 01:12:00,71.2,71.2,29.32,ESE,114,0.0,0.0,100,0.00,,---,0.00,VWS V14.01,2013-09-01 05:12:00,
2013-09-01 01:17:00,71.2,71.2,29.32,ESE,114,0.0,0.0,100,0.00,,---,0.00,VWS V14.01,2013-09-01 05:17:00,
2013-09-01 01:22:00,71.2,71.2,29.32,ESE,114,0.0,0.0,100,0.00,,---,0.00,VWS V14.01,2013-09-01 05:22:00,
2013-09-01 01:27:00,71.2,71.2,29.32,WNW,286,0.0,0.0,100,0.00,,---,0.00,VWS V14.01,2013-09-01 05:27:00,
2013-09-01 01:32:00,71.2,71.2,29.32,WNW,289,0.0,0.0,100,0.00,,---,0.00,VWS V14.01,2013-09-01 05:32:00,
2013-09-01 01:37:00,71.6,71.6,29.32,WNW,284,0.0,0.0,100,0.00,,---,0.00,VWS V14.01,2013-09-01 05:37:00,
2013-09-01 01:42:00,71.6,71.6,29.32,WSW,251,0.0,0.0,100,0.00,,---,0.00,VWS V14.01,2013-09-01 05:42:00,
2013-09-01 01:47:00,71.6,71.6,29.32,WSW,251,0.0,0.0,100,0.00,,---,0.00,VWS V14.01,2013-09-01 05:47:00,
2013-09-01 01:52:00,71.6,71.6,29.32,WSW,251,0.0,0.0,100,0.00,,---,0.00,VWS V14.01,2013-09-01 05:52:00,
2013-09-01 01:57:00,71.8,71.8,29.32,SE,139,0.0,0.0,100,0.00,,---,0.00,VWS V14.01,2013-09-01 05:57:00,
2013-09-01 02:02:00,71.8,71.8,29.32,SSW,210,0.0,0.0,100,0.00,,---,0.00,VWS V14.01,2013-09-01 06:02:00,
2013-09-01 02:07:00,71.8,71.8,29.32,SSE,168,0.0,0.0,100,0.00,,---,0.00,VWS V14.01,2013-09-01 06:07:00,
2013-09-01 02:12:00,71.8,71.8,29.32,SSW,196,0.0,0.0,100,0.00,,---,0.00,VWS V14.01,2013-09-01 06:12:00,
2013-09-01 02:17:00,72.0,72.0,29.32,SE,135,0.0,0.0,100,0.00,,---,0.00,VWS V14.01,2013-09-01 06:17:00,
2013-09-01 02:22:00,72.0,72.0,29.32,SE,135,0.0,0.0,100,0.00,,---,0.00,VWS V14.01,2013-09-01 06:22:00,
2013-09-01 02:27:00,72.0,72.0,29.32,SE,127,0.0,0.0,100,0.00,,---,0.00,VWS V14.01,2013-09-01 06:27:00,
2013-09-01 02:32:00,72.0,72.0,29.32,WSW,240,0.0,0.0,100,0.00,,---,0.00,VWS V14.01,2013-09-01 06:32:00,
2013-09-01 02:37:00,72.0,72.0,29.32,WSW,240,0.0,0.0,100,0.00,,---,0.00,VWS V14.01,2013-09-01 06:37:00,
2013-09-01 02:42:00,72.0,72.0,29.32,WSW,237,0.0,0.0,100,0.00,,---,0.00,VWS V14.01,2013-09-01 06:42:00,
2013-09-01 02:47:00,72.0,72.0,29.32,WSW,237,0.0,0.0,100,0.00,,---,0.00,VWS V14.01,2013-09-01 06:47:00,
2013-09-01 02:52:00,72.1,72.2,29.32,WSW,245,0.0,0.0,100,0.00,,---,0.00,VWS V14.01,2013-09-01 06:52:00,
2013-09-01 02:57:00,72.1,72.2,29.32,WSW,245,0.0,0.0,100,0.00,,---,0.00,VWS V14.01,2013-09-01 06:57:00,
2013-09-01 03:02:00,72.1,72.2,29.32,South,171,0.0,0.0,100,0.00,,---,0.00,VWS V14.01,2013-09-01 07:02:00,
2013-09-01 03:07:00,71.8,71.8,29.32,South,175,0.0,0.0,100,0.00,,---,0.00,VWS V14.01,2013-09-01 07:07:00,
2013-09-01 03:12:00,71.8,71.8,29.32,South,175,0.0,0.0,100,0.00,,---,0.00,VWS V14.01,2013-09-01 07:12:00,
2013-09-01 03:17:00,71.8,71.8,29.32,South,173,0.0,0.0,100,0.12,,---,0.12,VWS V14.01,2013-09-01 07:17:00,
2013-09-01 03:22:00,71.8,71.8,29.32,WNW,303,0.0,0.0,100,0.12,,---,0.12,VWS V14.01,2013-09-01 07:22:00,
2013-09-01 03:27:00,71.8,71.8,29.32,ESE,106,0.0,0.0,100,0.12,,---,0.12,VWS V14.01,2013-09-01 07:27:00,
2013-09-01 03:32:00,71.8,71.8,29.32,SSE,167,0.0,0.0,100,0.12,,---,0.12,VWS V14.01,2013-09-01 07:32:00,
2013-09-01 03:37:00,71.8,71.8,29.32,South,177,0.0,0.0,100,0.12,,---,0.12,VWS V14.01,2013-09-01 07:37:00,
2013-09-01 03:42:00,71.6,71.6,29.32,South,177,0.0,0.0,100,0.28,,---,0.28,VWS V14.01,2013-09-01 07:42:00,
2013-09-01 03:47:00,71.6,71.6,29.32,ENE,59,0.0,0.0,100,0.28,,---,0.28,VWS V14.01,2013-09-01 07:47:00,
2013-09-01 03:52:00,71.6,71.6,29.32,NE,45,0.0,0.0,100,0.28,,---,0.28,VWS V14.01,2013-09-01 07:52:00,
2013-09-01 03:57:00,71.6,71.6,29.32,NE,38,0.0,0.0,100,0.28,,---,0.28,VWS V14.01,2013-09-01 07:57:00,
2013-09-01 04:02:00,71.4,71.4,29.32,NE,38,0.0,0.0,100,0.28,,---,0.28,VWS V14.01,2013-09-01 08:02:00,
2013-09-01 04:07:00,71.4,71.4,29.32,NE,38,0.0,0.0,100,0.28,,---,0.28,VWS V14.01,2013-09-01 08:07:00,
2013-09-01 04:12:00,71.4,71.4,29.32,SSW,202,0.0,0.0,100,0.28,,---,0.28,VWS V14.01,2013-09-01 08:12:00,
2013-09-01 04:17:00,71.6,71.6,29.29,SSW,202,0.0,0.0,100,0.16,,---,0.28,VWS V14.01,2013-09-01 08:17:00,
2013-09-01 04:22:00,71.6,71.6,29.29,SSW,202,0.0,0.0,100,0.16,,---,0.28,VWS V14.01,2013-09-01 08:22:00,
2013-09-01 04:27:00,71.6,71.6,29.29,SSW,202,0.0,0.0,100,0.16,,---,0.28,VWS V14.01,2013-09-01 08:27:00,
2013-09-01 04:32:00,71.6,71.6,29.32,NNW,344,5.4,5.4,100,0.16,,---,0.28,VWS V14.01,2013-09-01 08:32:00,
2013-09-01 04:37:00,71.6,71.6,29.32,NNW,345,0.0,0.0,100,0.16,,---,0.28,VWS V14.01,2013-09-01 08:37:00,
2013-09-01 04:42:00,71.6,71.6,29.32,NNW,345,0.0,0.0,100,0.00,,---,0.28,VWS V14.01,2013-09-01 08:42:00,
2013-09-01 04:47:00,71.6,71.6,29.32,NNW,345,0.0,0.0,100,0.00,,---,0.28,VWS V14.01,2013-09-01 08:47:00,
2013-09-01 04:52:00,71.6,71.6,29.32,NNW,345,0.0,0.0,100,0.00,,---,0.28,VWS V14.01,2013-09-01 08:52:00,
2013-09-01 04:57:00,71.8,71.8,29.32,NNW,344,0.0,0.0,100,0.00,,---,0.28,VWS V14.01,2013-09-01 08:57:00,
2013-09-01 05:02:00,71.8,71.8,29.32,NNW,345,0.0,0.0,100,0.00,,---,0.28,VWS V14.01,2013-09-01 09:02:00,
2013-09-01 05:07:00,71.8,71.8,29.32,NNW,345,0.0,0.0,100,0.00,,---,0.28,VWS V14.01,2013-09-01 09:07:00,
2013-09-01 05:12:00,71.8,71.8,29.32,NNW,345,0.0,0.0,100,0.00,,---,0.28,VWS V14.01,2013-09-01 09:12:00,
2013-09-01 05:17:00,71.8,71.8,29.32,NNW,346,0.0,0.0,100,0.04,,---,0.31,VWS V14.01,2013-09-01 09:17:00,
2013-09-01 05:22:00,71.8,71.8,29.32,NNW,346,0.0,0.0,100,0.04,,---,0.31,VWS V14.01,2013-09-01 09:22:00,
2013-09-01 05:27:00,71.8,71.8,29.32,NNW,346,0.0,0.0,100,0.04,,---,0.31,VWS V14.01,2013-09-01 09:27:00,
2013-09-01 05:32:00,71.8,71.8,29.32,NNW,346,0.0,0.0,100,0.04,,---,0.31,VWS V14.01,2013-09-01 09:32:00,
2013-09-01 05:37:00,71.8,71.8,29.32,NNW,346,0.0,0.0,100,0.04,,---,0.31,VWS V14.01,2013-09-01 09:37:00,
2013-09-01 05:42:00,71.8,71.8,29.32,NNW,346,0.0,0.0,100,0.04,,---,0.31,VWS V14.01,2013-09-01 09:42:00,
2013-09-01 05:47:00,71.8,71.8,29.32,NNW,346,0.0,0.0,100,0.04,,---,0.31,VWS V14.01,2013-09-01 09:47:00,
2013-09-01 05:52:00,71.8,71.8,29.32,NNW,346,0.0,0.0,100,0.04,,---,0.31,VWS V14.01,2013-09-01 09:52:00,
2013-09-01 05:57:00,71.8,71.8,29.32,NNW,346,0.0,0.0,100,0.04,,---,0.31,VWS V14.01,2013-09-01 09:57:00,
2013-09-01 06:02:00,71.8,71.8,29.32,NNW,346,0.0,0.0,100,0.04,,---,0.31,VWS V14.01,2013-09-01 10:02:00,
2013-09-01 06:07:00,71.8,71.8,29.32,NNW,346,0.0,0.0,100,0.04,,---,0.31,VWS V14.01,2013-09-01 10:07:00,
2013-09-01 06:12:00,71.8,71.8,29.32,NNW,346,0.0,0.0,100,0.04,,---,0.31,VWS V14.01,2013-09-01 10:12:00,
2013-09-01 06:17:00,71.8,71.8,29.32,NNW,346,0.0,0.0,100,0.04,,---,0.31,VWS V14.01,2013-09-01 10:17:00,
2013-09-01 06:22:00,71.8,71.8,29.32,NNW,346,0.0,0.0,100,0.00,,---,0.31,VWS V14.01,2013-09-01 10:22:00,
2013-09-01 06:27:00,71.8,71.8,29.32,NNW,346,0.0,0.0,100,0.00,,---,0.31,VWS V14.01,2013-09-01 10:27:00,
2013-09-01 06:31:00,71.8,71.8,29.32,NNW,346,0.0,0.0,100,0.00,,---,0.31,VWS V14.01,2013-09-01 10:31:00,
2013-09-01 06:36:00,71.8,71.8,29.32,NNW,346,0.0,0.0,100,0.00,,---,0.31,VWS V14.01,2013-09-01 10:36:00,
2013-09-01 06:41:00,71.8,71.8,29.32,NNW,346,0.0,0.0,100,0.00,,---,0.31,VWS V14.01,2013-09-01 10:41:00,
2013-09-01 06:46:00,71.8,71.8,29.32,NNW,346,0.0,0.0,100,0.00,,---,0.31,VWS V14.01,2013-09-01 10:46:00,
2013-09-01 06:51:00,72.0,72.0,29.35,NNW,346,0.0,0.0,100,0.00,,---,0.31,VWS V14.01,2013-09-01 10:51:00,
2013-09-01 06:56:00,72.0,72.0,29.35,NNW,338,0.0,0.0,100,0.00,,---,0.31,VWS V14.01,2013-09-01 10:56:00,
2013-09-01 07:01:00,72.0,72.0,29.35,NNW,338,0.0,0.0,100,0.00,,---,0.31,VWS V14.01,2013-09-01 11:01:00,
2013-09-01 07:06:00,72.0,72.0,29.35,NNW,338,0.0,0.0,100,0.00,,---,0.31,VWS V14.01,2013-09-01 11:06:00,
2013-09-01 07:11:00,72.1,72.2,29.35,NNW,338,0.0,0.0,100,0.00,,---,0.31,VWS V14.01,2013-09-01 11:11:00,
2013-09-01 07:16:00,72.1,72.2,29.35,NNW,338,0.0,0.0,100,0.00,,---,0.31,VWS V14.01,2013-09-01 11:16:00,
2013-09-01 07:21:00,72.1,72.2,29.35,NNW,338,0.0,0.0,100,0.00,,---,0.31,VWS V14.01,2013-09-01 11:21:00,
2013-09-01 07:26:00,72.1,72.2,29.35,SSW,206,0.0,0.0,100,0.00,,---,0.31,VWS V14.01,2013-09-01 11:26:00,
2013-09-01 07:31:00,72.1,72.2,29.35,North,357,0.0,0.0,100,0.00,,---,0.31,VWS V14.01,2013-09-01 11:31:00,
2013-09-01 07:36:00,72.3,72.3,29.35,North,357,0.0,0.0,100,0.00,,---,0.31,VWS V14.01,2013-09-01 11:36:00,
2013-09-01 07:41:00,72.3,72.3,29.35,NE,41,0.0,0.0,100,0.00,,---,0.31,VWS V14.01,2013-09-01 11:41:00,
2013-09-01 07:46:00,72.3,72.3,29.35,NE,41,0.0,0.0,100,0.00,,---,0.31,VWS V14.01,2013-09-01 11:46:00,
2013-09-01 07:51:00,72.5,72.5,29.35,NE,41,0.0,0.0,100,0.00,,---,0.31,VWS V14.01,2013-09-01 11:51:00,
2013-09-01 07:56:00,72.5,72.5,29.35,NW,325,0.0,0.0,100,0.00,,---,0.31,VWS V14.01,2013-09-01 11:56:00,
2013-09-01 08:01:00,72.7,72.7,29.35,ESE,109,0.0,0.0,100,0.00,,---,0.31,VWS V14.01,2013-09-01 12:01:00,
2013-09-01 08:06:00,72.7,72.7,29.35,ESE,109,0.0,0.0,100,0.00,,---,0.31,VWS V14.01,2013-09-01 12:06:00,
2013-09-01 08:11:00,72.7,72.7,29.35,ENE,77,0.0,0.0,100,0.00,,---,0.31,VWS V14.01,2013-09-01 12:11:00,
2013-09-01 08:16:00,72.7,72.7,29.35,ESE,109,4.5,4.5,100,0.00,,---,0.31,VWS V14.01,2013-09-01 12:16:00,
2013-09-01 08:21:00,72.7,72.7,29.35,East,91,0.0,0.0,100,0.00,,---,0.31,VWS V14.01,2013-09-01 12:21:00,
2013-09-01 08:26:00,72.7,72.7,29.35,NNE,28,0.0,0.0,100,0.00,,---,0.31,VWS V14.01,2013-09-01 12:26:00,
2013-09-01 08:31:00,72.7,72.7,29.35,NNE,28,0.0,0.0,100,0.00,,---,0.31,VWS V14.01,2013-09-01 12:31:00,
2013-09-01 08:36:00,72.9,72.9,29.35,NE,50,0.0,0.0,100,0.00,,---,0.31,VWS V14.01,2013-09-01 12:36:00,
2013-09-01 08:41:00,72.9,72.9,29.35,NE,50,0.0,0.0,100,0.00,,---,0.31,VWS V14.01,2013-09-01 12:41:00,
2013-09-01 08:46:00,73.0,73.1,29.35,NW,319,0.0,0.0,100,0.00,,---,0.31,VWS V14.01,2013-09-01 12:46:00,
2013-09-01 08:51:00,73.0,73.1,29.35,NW,319,0.0,0.0,100,0.00,,---,0.31,VWS V14.01,2013-09-01 12:51:00,
2013-09-01 08:56:00,73.2,73.2,29.35,NW,319,0.0,0.0,100,0.00,,---,0.31,VWS V14.01,2013-09-01 12:56:00,
2013-09-01 09:01:00,73.2,73.2,29.35,NW,318,0.0,0.0,100,0.00,,---,0.31,VWS V14.01,2013-09-01 13:01:00,
2013-09-01 09:06:00,73.2,73.2,29.35,NW,318,0.0,0.0,100,0.00,,---,0.31,VWS V14.01,2013-09-01 13:06:00,
2013-09-01 09:11:00,73.4,73.4,29.35,SW,214,0.0,0.0,100,0.00,,---,0.31,VWS V14.01,2013-09-01 13:11:00,
2013-09-01 09:16:00,73.4,73.4,29.35,NNW,337,0.0,0.0,100,0.00,,---,0.31,VWS V14.01,2013-09-01 13:16:00,
2013-09-01 09:21:00,73.4,73.4,29.35,NNW,338,0.0,0.0,100,0.00,,---,0.31,VWS V14.01,2013-09-01 13:21:00,
2013-09-01 09:26:00,73.4,73.4,29.35,NNW,338,0.0,0.0,100,0.00,,---,0.31,VWS V14.01,2013-09-01 13:26:00,
2013-09-01 09:31:00,73.4,73.4,29.35,NNW,338,0.0,0.0,100,0.00,,---,0.31,VWS V14.01,2013-09-01 13:31:00,
2013-09-01 09:36:00,73.6,73.6,29.35,North,353,0.0,0.0,100,0.00,,---,0.31,VWS V14.01,2013-09-01 13:36:00,
2013-09-01 09:41:00,73.6,73.6,29.35,North,0,0.0,0.0,100,0.00,,---,0.31,VWS V14.01,2013-09-01 13:41:00,
2013-09-01 09:46:00,73.9,73.9,29.35,North,357,0.0,0.0,100,0.00,,---,0.31,VWS V14.01,2013-09-01 13:46:00,
2013-09-01 09:51:00,73.9,73.9,29.35,North,357,0.0,0.0,100,0.00,,---,0.31,VWS V14.01,2013-09-01 13:51:00,
2013-09-01 09:56:00,73.9,73.9,29.35,NNW,329,0.0,0.0,100,0.00,,---,0.31,VWS V14.01,2013-09-01 13:56:00,
2013-09-01 10:01:00,73.8,73.8,29.35,NNW,329,0.0,0.0,100,0.00,,---,0.31,VWS V14.01,2013-09-01 14:01:00,
2013-09-01 10:06:00,73.8,73.8,29.35,NW,316,0.0,0.0,100,0.00,,---,0.31,VWS V14.01,2013-09-01 14:06:00,
2013-09-01 10:11:00,73.6,73.6,29.35,WNW,298,0.0,0.0,100,0.00,,---,0.31,VWS V14.01,2013-09-01 14:11:00,
2013-09-01 10:16:00,73.6,73.6,29.35,WNW,298,0.0,0.0,100,0.00,,---,0.31,VWS V14.01,2013-09-01 14:16:00,
2013-09-01 10:21:00,73.6,73.6,29.35,NW,320,0.0,0.0,100,0.00,,---,0.31,VWS V14.01,2013-09-01 14:21:00,
2013-09-01 10:26:00,73.4,73.4,29.35,West,278,0.0,0.0,100,0.00,,---,0.31,VWS V14.01,2013-09-01 14:26:00,
2013-09-01 10:31:00,73.8,73.8,29.35,WSW,239,0.0,0.0,100,0.00,,---,0.31,VWS V14.01,2013-09-01 14:31:00,
2013-09-01 10:36:00,74.1,74.1,29.35,WSW,247,0.0,0.0,100,0.00,,---,0.31,VWS V14.01,2013-09-01 14:36:00,
2013-09-01 10:41:00,74.5,74.5,29.35,WSW,252,0.0,0.0,100,0.00,,---,0.31,VWS V14.01,2013-09-01 14:41:00,
2013-09-01 10:46:00,74.5,74.5,29.35,WSW,252,0.0,0.0,100,0.00,,---,0.31,VWS V14.01,2013-09-01 14:46:00,
2013-09-01 10:51:00,75.2,75.2,29.35,ESE,113,0.0,0.0,100,0.00,,---,0.31,VWS V14.01,2013-09-01 14:51:00,
2013-09-01 10:56:00,75.2,75.2,29.35,ENE,63,0.0,0.0,100,0.00,,---,0.31,VWS V14.01,2013-09-01 14:56:00,
2013-09-01 11:01:00,75.2,75.2,29.35,WSW,247,4.5,4.5,100,0.00,,---,0.31,VWS V14.01,2013-09-01 15:01:00,
2013-09-01 11:06:00,75.0,75.0,29.35,SE,132,0.0,0.0,100,0.00,,---,0.31,VWS V14.01,2013-09-01 15:06:00,
2013-09-01 11:11:00,74.8,74.8,29.35,South,178,0.0,0.0,100,0.00,,---,0.31,VWS V14.01,2013-09-01 15:11:00,
2013-09-01 11:16:00,74.8,74.8,29.35,SSE,167,0.0,0.0,100,0.00,,---,0.31,VWS V14.01,2013-09-01 15:16:00,
2013-09-01 11:21:00,75.2,75.2,29.35,SSE,167,0.0,0.0,100,0.00,,---,0.31,VWS V14.01,2013-09-01 15:21:00,
2013-09-01 11:26:00,75.2,75.2,29.35,WNW,298,0.0,0.0,100,0.00,,---,0.31,VWS V14.01,2013-09-01 15:26:00,
2013-09-01 11:31:00,75.4,75.4,29.35,NW,317,0.0,0.0,100,0.00,,---,0.31,VWS V14.01,2013-09-01 15:31:00,
2013-09-01 11:36:00,75.4,75.4,29.35,NE,40,0.0,0.0,100,0.00,,---,0.31,VWS V14.01,2013-09-01 15:36:00,
2013-09-01 11:41:00,75.4,75.4,29.35,NNW,342,0.0,0.0,100,0.00,,---,0.31,VWS V14.01,2013-09-01 15:41:00,
2013-09-01 11:46:00,77.7,77.7,29.35,NNW,342,0.0,0.0,100,0.00,,---,0.31,VWS V14.01,2013-09-01 15:46:00,
2013-09-01 11:51:00,79.0,79.0,29.35,South,182,0.0,0.0,100,0.00,,---,0.31,VWS V14.01,2013-09-01 15:51:00,
2013-09-01 11:56:00,79.0,79.0,29.35,NW,309,0.0,0.0,100,0.00,,---,0.31,VWS V14.01,2013-09-01 15:56:00,
2013-09-01 12:01:00,78.6,75.4,29.35,WNW,285,0.0,0.0,90,0.00,,---,0.31,VWS V14.01,2013-09-01 16:01:00,
2013-09-01 12:06:00,78.3,73.7,29.35,WNW,285,0.0,0.0,86,0.00,,---,0.31,VWS V14.01,2013-09-01 16:06:00,
2013-09-01 12:11:00,77.7,72.2,29.35,WNW,285,0.0,0.0,83,0.00,,---,0.31,VWS V14.01,2013-09-01 16:11:00,
2013-09-01 12:16:00,77.7,72.8,29.35,SW,220,0.0,0.0,85,0.00,,---,0.31,VWS V14.01,2013-09-01 16:16:00,
2013-09-01 12:21:00,77.4,68.0,29.35,SW,229,0.0,0.0,73,0.00,,---,0.31,VWS V14.01,2013-09-01 16:21:00,
2013-09-01 12:26:00,77.4,68.0,29.35,WNW,293,0.0,0.0,73,0.00,,---,0.31,VWS V14.01,2013-09-01 16:26:00,
2013-09-01 12:31:00,77.2,70.2,29.35,NW,318,0.0,0.0,79,0.00,,---,0.31,VWS V14.01,2013-09-01 16:31:00,
2013-09-01 12:36:00,76.8,69.1,29.35,North,353,0.0,0.0,77,0.00,,---,0.31,VWS V14.01,2013-09-01 16:36:00,
2013-09-01 12:41:00,77.2,71.3,29.35,WNW,286,0.0,0.0,82,0.00,,---,0.31,VWS V14.01,2013-09-01 16:41:00,
2013-09-01 12:46:00,77.4,71.8,29.35,WNW,286,0.0,0.0,83,0.00,,---,0.31,VWS V14.01,2013-09-01 16:46:00,
2013-09-01 12:51:00,77.7,70.3,29.35,SSE,153,0.0,0.0,78,0.00,,---,0.31,VWS V14.01,2013-09-01 16:51:00,
2013-09-01 12:56:00,77.9,69.3,29.35,South,179,0.0,0.0,75,0.00,,---,0.31,VWS V14.01,2013-09-01 16:56:00,
2013-09-01 13:01:00,77.9,67.8,29.35,South,181,0.0,0.0,71,0.00,,---,0.31,VWS V14.01,2013-09-01 17:01:00,
2013-09-01 13:06:00,77.9,67.8,29.35,WSW,239,0.0,0.0,71,0.00,,---,0.31,VWS V14.01,2013-09-01 17:06:00,
2013-09-01 13:11:00,77.5,66.2,29.35,SW,232,0.0,0.0,68,0.00,,---,0.31,VWS V14.01,2013-09-01 17:11:00,
2013-09-01 13:16:00,77.4,66.4,29.35,NE,49,0.0,0.0,69,0.00,,---,0.31,VWS V14.01,2013-09-01 17:16:00,
2013-09-01 13:21:00,77.2,67.1,29.35,SW,220,0.0,0.0,71,0.00,,---,0.31,VWS V14.01,2013-09-01 17:21:00,
2013-09-01 13:26:00,77.0,67.3,29.35,North,349,0.0,0.0,72,0.00,,---,0.31,VWS V14.01,2013-09-01 17:26:00,
2013-09-01 13:31:00,77.0,67.3,29.35,NW,326,0.0,0.0,72,0.00,,---,0.31,VWS V14.01,2013-09-01 17:31:00,
2013-09-01 13:36:00,77.2,67.9,29.35,NW,326,0.0,0.0,73,0.00,,---,0.31,VWS V14.01,2013-09-01 17:36:00,
2013-09-01 13:41:00,77.4,66.4,29.35,North,353,0.0,0.0,69,0.00,,---,0.31,VWS V14.01,2013-09-01 17:41:00,
2013-09-01 13:46:00,77.4,65.6,29.35,West,280,0.0,0.0,67,0.00,,---,0.31,VWS V14.01,2013-09-01 17:46:00,
2013-09-01 13:51:00,77.5,65.3,29.35,South,189,0.0,0.0,66,0.00,,---,0.31,VWS V14.01,2013-09-01 17:51:00,
2013-09-01 13:56:00,77.7,65.5,29.35,South,188,0.0,0.0,66,0.00,,---,0.31,VWS V14.01,2013-09-01 17:56:00,
2013-09-01 14:00:00,77.7,65.0,29.35,NNE,17,6.3,6.3,65,0.00,,---,0.00,VWS V14.01,2013-09-01 18:00:00,
2013-09-01 14:05:00,77.7,64.6,29.35,ESE,107,0.0,0.0,64,0.00,,---,0.31,VWS V14.01,2013-09-01 18:05:00,
2013-09-01 14:10:00,77.9,64.8,29.35,SSW,208,0.0,0.0,64,0.00,,---,0.31,VWS V14.01,2013-09-01 18:10:00,
2013-09-01 14:15:00,78.1,64.9,29.35,SSW,207,0.0,0.0,64,0.00,,---,0.31,VWS V14.01,2013-09-01 18:15:00,
2013-09-01 14:20:00,77.7,64.6,29.35,SSW,197,0.0,0.0,64,0.00,,---,0.31,VWS V14.01,2013-09-01 18:20:00,
2013-09-01 14:25:00,77.5,65.3,29.35,NE,51,0.0,0.0,66,0.00,,---,0.31,VWS V14.01,2013-09-01 18:25:00,
2013-09-01 14:30:00,77.2,64.9,29.35,NE,51,0.0,0.0,66,0.00,,---,0.31,VWS V14.01,2013-09-01 18:30:00,
2013-09-01 14:35:00,77.0,64.8,29.35,NE,43,0.0,0.0,66,0.00,,---,0.31,VWS V14.01,2013-09-01 18:35:00,
2013-09-01 14:40:00,76.8,65.0,29.35,NE,43,0.0,0.0,67,0.00,,---,0.31,VWS V14.01,2013-09-01 18:40:00,
2013-09-01 14:45:00,76.8,65.0,29.35,East,89,0.0,0.0,67,0.00,,---,0.31,VWS V14.01,2013-09-01 18:45:00,
2013-09-01 14:50:00,77.0,65.2,29.35,SSE,155,0.0,0.0,67,0.00,,---,0.31,VWS V14.01,2013-09-01 18:50:00,
2013-09-01 14:55:00,77.4,66.0,29.35,SSE,155,0.0,0.0,68,0.00,,---,0.31,VWS V14.01,2013-09-01 18:55:00,
2013-09-01 15:00:00,77.4,65.1,29.35,SSE,155,0.0,0.0,66,0.00,,---,0.31,VWS V14.01,2013-09-01 19:00:00,
2013-09-01 15:05:00,77.2,64.5,29.35,NE,38,0.0,0.0,65,0.00,,---,0.31,VWS V14.01,2013-09-01 19:05:00,
2013-09-01 15:10:00,77.2,64.1,29.35,SSE,160,0.0,0.0,64,0.00,,---,0.31,VWS V14.01,2013-09-01 19:10:00,
2013-09-01 15:15:00,77.2,64.5,29.35,SSW,208,0.0,0.0,65,0.00,,---,0.31,VWS V14.01,2013-09-01 19:15:00,
2013-09-01 15:20:00,77.0,64.3,29.35,SE,146,0.0,0.0,65,0.00,,---,0.31,VWS V14.01,2013-09-01 19:20:00,
2013-09-01 15:25:00,76.6,64.4,29.35,SSW,197,0.0,0.0,66,0.00,,---,0.31,VWS V14.01,2013-09-01 19:25:00,
2013-09-01 15:30:00,76.3,64.5,29.35,NNW,342,0.0,0.0,67,0.00,,---,0.31,VWS V14.01,2013-09-01 19:30:00,
2013-09-01 15:35:00,76.1,64.8,29.35,SW,216,0.0,0.0,68,0.00,,---,0.31,VWS V14.01,2013-09-01 19:35:00,
2013-09-01 15:40:00,76.1,66.0,29.35,NNE,22,0.0,0.0,71,0.00,,---,0.31,VWS V14.01,2013-09-01 19:40:00,
2013-09-01 15:45:00,76.6,66.5,29.35,NNE,23,0.0,0.0,71,0.00,,---,0.31,VWS V14.01,2013-09-01 19:45:00,
2013-09-01 15:50:00,77.4,67.2,29.35,South,185,0.0,0.0,71,0.00,,---,0.31,VWS V14.01,2013-09-01 19:50:00,
2013-09-01 15:55:00,77.4,64.7,29.35,SSE,165,0.0,0.0,65,0.00,,---,0.31,VWS V14.01,2013-09-01 19:55:00,
2013-09-01 16:00:00,77.2,64.5,29.32,West,264,0.0,0.0,65,0.00,,---,0.31,VWS V14.01,2013-09-01 20:00:00,
2013-09-01 16:05:00,77.0,64.8,29.32,North,0,0.0,0.0,66,0.00,,---,0.31,VWS V14.01,2013-09-01 20:05:00,
2013-09-01 16:10:00,76.8,65.0,29.32,WSW,255,0.0,0.0,67,0.00,,---,0.31,VWS V14.01,2013-09-01 20:10:00,
2013-09-01 16:15:00,76.8,64.6,29.32,WSW,242,0.0,0.0,66,0.00,,---,0.31,VWS V14.01,2013-09-01 20:15:00,
2013-09-01 16:20:00,76.6,64.9,29.32,SW,236,0.0,0.0,67,0.00,,---,0.31,VWS V14.01,2013-09-01 20:20:00,
2013-09-01 16:25:00,76.3,64.5,29.32,SSE,148,0.0,0.0,67,0.00,,---,0.31,VWS V14.01,2013-09-01 20:25:00,
2013-09-01 16:30:00,76.1,65.2,29.32,SW,219,0.0,0.0,69,0.00,,---,0.31,VWS V14.01,2013-09-01 20:30:00,
2013-09-01 16:35:00,75.7,66.1,29.32,NNE,19,0.0,0.0,72,0.00,,---,0.31,VWS V14.01,2013-09-01 20:35:00,
2013-09-01 16:40:00,75.6,66.7,29.32,NNE,29,0.0,0.0,74,0.00,,---,0.31,VWS V14.01,2013-09-01 20:40:00,
2013-09-01 16:45:00,75.6,66.3,29.32,NNE,17,0.0,0.0,73,0.00,,---,0.31,VWS V14.01,2013-09-01 20:45:00,
2013-09-01 16:50:00,75.6,66.7,29.32,NNE,17,0.0,0.0,74,0.00,,---,0.31,VWS V14.01,2013-09-01 20:50:00,
2013-09-01 16:55:00,75.4,67.3,29.32,NNW,328,0.0,0.0,76,0.00,,---,0.31,VWS V14.01,2013-09-01 20:55:00,
2013-09-01 17:00:00,75.4,67.7,29.32,NW,319,0.0,0.0,77,0.00,,---,0.31,VWS V14.01,2013-09-01 21:00:00,
2013-09-01 17:05:00,75.2,67.9,29.32,WSW,246,0.0,0.0,78,0.00,,---,0.31,VWS V14.01,2013-09-01 21:05:00,
2013-09-01 17:10:00,75.2,68.6,29.32,NNW,327,0.0,0.0,80,0.00,,---,0.31,VWS V14.01,2013-09-01 21:10:00,
2013-09-01 17:15:00,75.0,68.8,29.32,North,0,0.0,0.0,81,0.00,,---,0.31,VWS V14.01,2013-09-01 21:15:00,
2013-09-01 17:20:00,75.0,68.4,29.32,ESE,113,0.0,0.0,80,0.00,,---,0.31,VWS V14.01,2013-09-01 21:20:00,
2013-09-01 17:25:00,75.0,68.8,29.32,North,4,0.0,0.0,81,0.00,,---,0.31,VWS V14.01,2013-09-01 21:25:00,
2013-09-01 17:30:00,74.8,69.0,29.32,South,188,0.0,0.0,82,0.00,,---,0.31,VWS V14.01,2013-09-01 21:30:00,
2013-09-01 17:35:00,74.8,69.3,29.32,WNW,287,5.4,5.4,83,0.00,,---,0.31,VWS V14.01,2013-09-01 21:35:00,
2013-09-01 17:40:00,74.8,69.3,29.32,SW,214,0.0,0.0,83,0.00,,---,0.31,VWS V14.01,2013-09-01 21:40:00,
2013-09-01 17:45:00,74.8,69.3,29.32,SE,134,0.0,0.0,83,0.00,,---,0.31,VWS V14.01,2013-09-01 21:45:00,
2013-09-01 17:50:00,74.8,69.3,29.32,NNW,327,0.0,0.0,83,0.00,,---,0.31,VWS V14.01,2013-09-01 21:50:00,
2013-09-01 17:55:00,74.8,69.3,29.32,WNW,286,0.0,0.0,83,0.00,,---,0.31,VWS V14.01,2013-09-01 21:55:00,
2013-09-01 18:00:00,74.8,69.7,29.35,WSW,240,0.0,0.0,84,0.00,,---,0.31,VWS V14.01,2013-09-01 22:00:00,
2013-09-01 18:05:00,74.8,69.7,29.35,WSW,240,0.0,0.0,84,0.00,,---,0.31,VWS V14.01,2013-09-01 22:05:00,
2013-09-01 18:10:00,75.0,69.5,29.35,NW,318,0.0,0.0,83,0.00,,---,0.31,VWS V14.01,2013-09-01 22:10:00,
2013-09-01 18:15:00,75.0,69.5,29.35,NW,318,0.0,0.0,83,0.00,,---,0.31,VWS V14.01,2013-09-01 22:15:00,
2013-09-01 18:20:00,75.0,69.5,29.35,NW,318,0.0,0.0,83,0.00,,---,0.31,VWS V14.01,2013-09-01 22:20:00,
2013-09-01 18:25:00,75.0,69.5,29.35,NW,318,0.0,0.0,83,0.00,,---,0.31,VWS V14.01,2013-09-01 22:25:00,
2013-09-01 18:30:00,74.8,69.3,29.35,NW,318,0.0,0.0,83,0.00,,---,0.31,VWS V14.01,2013-09-01 22:30:00,
2013-09-01 18:35:00,74.8,69.3,29.35,WNW,292,0.0,0.0,83,0.00,,---,0.31,VWS V14.01,2013-09-01 22:35:00,
2013-09-01 18:40:00,74.7,69.5,29.35,WNW,292,0.0,0.0,84,0.00,,---,0.31,VWS V14.01,2013-09-01 22:40:00,
2013-09-01 18:45:00,74.5,70.0,29.32,WNW,289,0.0,0.0,86,0.00,,---,0.31,VWS V14.01,2013-09-01 22:45:00,
2013-09-01 18:50:00,74.3,70.2,29.32,SW,216,0.0,0.0,87,0.00,,---,0.31,VWS V14.01,2013-09-01 22:50:00,
2013-09-01 18:55:00,74.3,70.2,29.32,NW,326,0.0,0.0,87,0.00,,---,0.31,VWS V14.01,2013-09-01 22:55:00,
2013-09-01 19:00:00,74.1,70.3,29.32,NW,326,0.0,0.0,88,0.00,,---,0.31,VWS V14.01,2013-09-01 23:00:00,
2013-09-01 19:05:00,74.1,70.3,29.32,NW,326,0.0,0.0,88,0.00,,---,0.31,VWS V14.01,2013-09-01 23:05:00,
2013-09-01 19:10:00,73.9,70.5,29.32,NW,326,0.0,0.0,89,0.00,,---,0.31,VWS V14.01,2013-09-01 23:10:00,
2013-09-01 19:15:00,73.9,70.5,29.32,NW,326,0.0,0.0,89,0.00,,---,0.31,VWS V14.01,2013-09-01 23:15:00,
2013-09-01 19:20:00,73.8,70.3,29.32,NW,326,0.0,0.0,89,0.00,,---,0.31,VWS V14.01,2013-09-01 23:20:00,
2013-09-01 19:25:00,73.8,70.7,29.32,NW,326,0.0,0.0,90,0.00,,---,0.31,VWS V14.01,2013-09-01 23:25:00,
2013-09-01 19:30:00,73.6,70.8,29.32,NW,326,0.0,0.0,91,0.00,,---,0.31,VWS V14.01,2013-09-01 23:30:00,
2013-09-01 19:35:00,73.6,70.8,29.32,NW,326,0.0,0.0,91,0.00,,---,0.31,VWS V14.01,2013-09-01 23:35:00,
2013-09-01 19:40:00,73.6,71.4,29.32,NW,326,0.0,0.0,93,0.00,,---,0.31,VWS V14.01,2013-09-01 23:40:00,
2013-09-01 19:45:00,73.4,71.6,29.32,NW,325,0.0,0.0,94,0.00,,---,0.31,VWS V14.01,2013-09-01 23:45:00,
2013-09-01 19:50:00,73.4,71.6,29.32,NW,325,0.0,0.0,94,0.00,,---,0.31,VWS V14.01,2013-09-01 23:50:00,
2013-09-01 19:55:00,73.4,71.9,29.32,NW,325,0.0,0.0,95,0.00,,---,0.31,VWS V14.01,2013-09-01 23:55:00,
2013-09-01 20:00:00,73.2,72.0,29.32,NW,325,0.0,0.0,96,0.00,,---,0.31,VWS V14.01,2013-09-02 00:00:00,
2013-09-01 20:05:00,73.2,72.0,29.35,NW,325,0.0,0.0,96,0.00,,---,0.31,VWS V14.01,2013-09-02 00:05:00,
2013-09-01 20:10:00,73.2,72.0,29.35,NW,325,0.0,0.0,96,0.00,,---,0.31,VWS V14.01,2013-09-02 00:10:00,
2013-09-01 20:15:00,73.2,72.3,29.35,NW,325,0.0,0.0,97,0.00,,---,0.31,VWS V14.01,2013-09-02 00:15:00,
2013-09-01 20:20:00,73.0,72.1,29.35,NW,326,0.0,0.0,97,0.00,,---,0.31,VWS V14.01,2013-09-02 00:20:00,
2013-09-01 20:25:00,73.0,72.4,29.35,NW,325,0.0,0.0,98,0.00,,---,0.31,VWS V14.01,2013-09-02 00:25:00,
2013-09-01 20:30:00,73.0,72.4,29.35,NW,325,0.0,0.0,98,0.00,,---,0.31,VWS V14.01,2013-09-02 00:30:00,
2013-09-01 20:35:00,72.9,72.6,29.35,NW,325,0.0,0.0,99,0.00,,---,0.31,VWS V14.01,2013-09-02 00:35:00,
2013-09-01 20:40:00,72.9,72.6,29.35,NW,326,0.0,0.0,99,0.00,,---,0.31,VWS V14.01,2013-09-02 00:40:00,
2013-09-01 20:45:00,72.9,72.6,29.35,NW,326,0.0,0.0,99,0.00,,---,0.31,VWS V14.01,2013-09-02 00:45:00,
2013-09-01 20:50:00,72.7,72.4,29.35,NW,326,0.0,0.0,99,0.00,,---,0.31,VWS V14.01,2013-09-02 00:50:00,
2013-09-01 20:55:00,72.7,72.4,29.35,NW,326,0.0,0.0,99,0.00,,---,0.31,VWS V14.01,2013-09-02 00:55:00,
2013-09-01 21:00:00,72.7,72.7,29.35,NNW,340,0.0,0.0,100,0.00,,---,0.31,VWS V14.01,2013-09-02 01:00:00,
2013-09-01 21:05:00,72.7,72.7,29.35,NNW,341,0.0,0.0,100,0.00,,---,0.31,VWS V14.01,2013-09-02 01:05:00,
2013-09-01 21:10:00,72.7,72.7,29.35,NNW,340,0.0,0.0,100,0.00,,---,0.31,VWS V14.01,2013-09-02 01:10:00,
2013-09-01 21:15:00,72.5,72.5,29.35,NNW,340,0.0,0.0,100,0.00,,---,0.31,VWS V14.01,2013-09-02 01:15:00,
2013-09-01 21:20:00,72.5,72.5,29.35,NNW,340,0.0,0.0,100,0.00,,---,0.31,VWS V14.01,2013-09-02 01:20:00,
2013-09-01 21:25:00,72.5,72.5,29.35,NNW,340,0.0,0.0,100,0.00,,---,0.31,VWS V14.01,2013-09-02 01:25:00,
2013-09-01 21:30:00,72.3,72.3,29.35,NNW,340,0.0,0.0,100,0.00,,---,0.31,VWS V14.01,2013-09-02 01:30:00,
2013-09-01 21:35:00,72.3,72.3,29.35,NNW,340,0.0,0.0,100,0.00,,---,0.31,VWS V14.01,2013-09-02 01:35:00,
2013-09-01 21:40:00,72.3,72.3,29.35,NNW,340,0.0,0.0,100,0.00,,---,0.31,VWS V14.01,2013-09-02 01:40:00,
2013-09-01 21:45:00,72.1,72.2,29.35,NNW,340,0.0,0.0,100,0.00,,---,0.31,VWS V14.01,2013-09-02 01:45:00,
2013-09-01 21:50:00,72.1,72.2,29.35,NNW,340,0.0,0.0,100,0.00,,---,0.31,VWS V14.01,2013-09-02 01:50:00,
2013-09-01 21:55:00,72.1,72.2,29.35,NNW,340,0.0,0.0,100,0.00,,---,0.31,VWS V14.01,2013-09-02 01:55:00,
2013-09-01 22:00:00,72.1,72.2,29.35,NNW,340,0.0,0.0,100,0.00,,---,0.31,VWS V14.01,2013-09-02 02:00:00,
2013-09-01 22:05:00,72.1,72.2,29.35,NNW,340,0.0,0.0,100,0.00,,---,0.31,VWS V14.01,2013-09-02 02:05:00,
2013-09-01 22:10:00,72.1,72.2,29.35,NNW,340,0.0,0.0,100,0.00,,---,0.31,VWS V14.01,2013-09-02 02:10:00,
2013-09-01 22:15:00,72.1,72.2,29.35,NNW,340,0.0,0.0,100,0.00,,---,0.31,VWS V14.01,2013-09-02 02:15:00,
2013-09-01 22:20:00,72.1,72.2,29.35,NNW,340,0.0,0.0,100,0.00,,---,0.31,VWS V14.01,2013-09-02 02:20:00,
2013-09-01 22:25:00,72.1,72.2,29.35,NNW,340,0.0,0.0,100,0.00,,---,0.31,VWS V14.01,2013-09-02 02:25:00,
2013-09-01 22:30:00,72.1,72.2,29.35,NNW,340,0.0,0.0,100,0.00,,---,0.31,VWS V14.01,2013-09-02 02:30:00,
2013-09-01 22:35:00,72.1,72.2,29.35,NNW,340,0.0,0.0,100,0.00,,---,0.31,VWS V14.01,2013-09-02 02:35:00,
2013-09-01 22:40:00,72.1,72.2,29.35,NNW,340,0.0,0.0,100,0.00,,---,0.31,VWS V14.01,2013-09-02 02:40:00,
2013-09-01 22:45:00,72.1,72.2,29.35,NNW,340,0.0,0.0,100,0.00,,---,0.31,VWS V14.01,2013-09-02 02:45:00,
2013-09-01 22:50:00,72.1,72.2,29.35,NNW,340,0.0,0.0,100,0.00,,---,0.31,VWS V14.01,2013-09-02 02:50:00,
2013-09-01 22:55:00,72.1,72.2,29.35,NNW,340,0.0,0.0,100,0.00,,---,0.31,VWS V14.01,2013-09-02 02:55:00,
2013-09-01 23:00:00,72.1,72.2,29.35,NNW,340,0.0,0.0,100,0.00,,---,0.31,VWS V14.01,2013-09-02 03:00:00,
2013-09-01 23:05:00,72.1,72.2,29.35,NNW,340,0.0,0.0,100,0.00,,---,0.31,VWS V14.01,2013-09-02 03:05:00,
2013-09-01 23:10:00,72.1,72.2,29.35,NNW,340,0.0,0.0,100,0.00,,---,0.31,VWS V14.01,2013-09-02 03:10:00,
2013-09-01 23:15:00,72.1,72.2,29.35,NNW,340,0.0,0.0,100,0.00,,---,0.31,VWS V14.01,2013-09-02 03:15:00,
2013-09-01 23:20:00,72.1,72.2,29.35,NNW,340,0.0,0.0,100,0.00,,---,0.31,VWS V14.01,2013-09-02 03:20:00,
2013-09-01 23:25:00,72.1,72.2,29.35,NNW,340,0.0,0.0,100,0.00,,---,0.31,VWS V14.01,2013-09-02 03:25:00,
2013-09-01 23:30:00,72.0,72.0,29.35,NNW,340,0.0,0.0,100,0.00,,---,0.31,VWS V14.01,2013-09-02 03:30:00,
2013-09-01 23:35:00,72.0,72.0,29.35,NNW,340,0.0,0.0,100,0.00,,---,0.31,VWS V14.01,2013-09-02 03:35:00,
2013-09-01 23:40:00,72.0,72.0,29.35,NNW,340,0.0,0.0,100,0.00,,---,0.31,VWS V14.01,2013-09-02 03:40:00,
2013-09-01 23:45:00,72.0,72.0,29.35,NNW,340,0.0,0.0,100,0.00,,---,0.31,VWS V14.01,2013-09-02 03:45:00,
2013-09-01 23:50:00,72.0,72.0,29.35,NNW,340,0.0,0.0,100,0.00,,---,0.31,VWS V14.01,2013-09-02 03:50:00,
2013-09-01 23:55:00,72.0,72.0,29.35,NNW,340,0.0,0.0,100,0.00,,---,0.31,VWS V14.01,2013-09-02 03:55:00,